CES7842 ZSNJ-ZGGG
Flight info
| Callsign | CES7842 |
|---|---|
| Flight time | 1h 46m |
| Altitude | 25500 |
| Route | K0848S1040 HFE52X HFE H2 P37/K0843S1100 H2 P262 DCT KHN DCT RUNEK W19 OLPAB OLPAB1 |
| Aircraft | A320/M-SDE3FGHIRWY/LB1 |
Departure
| Time | 2026-04-30 12:05 |
|---|---|
| Airport | Nanjing Lukou International Airport (ZSNJ) |
Arrival
| Time | 2026-04-30 13:51 |
|---|---|
| Airport | Guangzhou Baiyun International Airport (ZGGG) |
| Time | Latitude | Longitude | Altitude | Speed | Heading |
|---|---|---|---|---|---|
| 2026-04-30 11:46 | 31.73018 | 118.86665 | 58 ft | 0 kts | 148° |
| 2026-04-30 11:54 | 31.73025 | 118.86660 | 50 ft | 3 kts | 151° |
| 2026-04-30 11:54 | 31.73043 | 118.86651 | 56 ft | 3 kts | 172° |
| 2026-04-30 11:54 | 31.73062 | 118.86651 | 54 ft | 3 kts | 202° |
| 2026-04-30 11:54 | 31.73075 | 118.86661 | 54 ft | 1 kts | 237° |
| 2026-04-30 11:55 | 31.73076 | 118.86663 | 54 ft | 0 kts | 238° |
| 2026-04-30 11:58 | 31.73070 | 118.86653 | 54 ft | 6 kts | 237° |
| 2026-04-30 11:58 | 31.73032 | 118.86581 | 52 ft | 14 kts | 240° |
| 2026-04-30 11:59 | 31.72981 | 118.86487 | 54 ft | 7 kts | 237° |
| 2026-04-30 11:59 | 31.72950 | 118.86465 | 51 ft | 4 kts | 176° |
| 2026-04-30 11:59 | 31.72930 | 118.86476 | 56 ft | 2 kts | 149° |
| 2026-04-30 11:59 | 31.72917 | 118.86486 | 52 ft | 4 kts | 146° |
| 2026-04-30 12:00 | 31.72866 | 118.86524 | 52 ft | 13 kts | 148° |
| 2026-04-30 12:00 | 31.72760 | 118.86601 | 52 ft | 22 kts | 147° |
| 2026-04-30 12:00 | 31.72665 | 118.86673 | 53 ft | 18 kts | 149° |
| 2026-04-30 12:00 | 31.72604 | 118.86774 | 59 ft | 17 kts | 78° |
| 2026-04-30 12:01 | 31.72679 | 118.86920 | 54 ft | 25 kts | 58° |
| 2026-04-30 12:01 | 31.72787 | 118.87125 | 54 ft | 33 kts | 58° |
| 2026-04-30 12:01 | 31.72922 | 118.87376 | 58 ft | 39 kts | 59° |
| 2026-04-30 12:01 | 31.73070 | 118.87668 | 53 ft | 44 kts | 59° |
| 2026-04-30 12:02 | 31.73196 | 118.87887 | 52 ft | 19 kts | 61° |
| 2026-04-30 12:02 | 31.73187 | 118.87934 | 53 ft | 4 kts | 137° |
| 2026-04-30 12:02 | 31.73172 | 118.87948 | 53 ft | 2 kts | 145° |
| 2026-04-30 12:02 | 31.73157 | 118.87959 | 57 ft | 6 kts | 147° |
| 2026-04-30 12:03 | 31.73089 | 118.88000 | 53 ft | 16 kts | 172° |
| 2026-04-30 12:03 | 31.73023 | 118.87940 | 50 ft | 0 kts | 239° |
| 2026-04-30 12:04 | 31.73020 | 118.87935 | 51 ft | 6 kts | 239° |
| 2026-04-30 12:04 | 31.72861 | 118.87638 | 51 ft | 83 kts | 237° |
| 2026-04-30 12:04 | 31.72422 | 118.86822 | 55 ft | 149 kts | 238° |
| 2026-04-30 12:04 | 31.71786 | 118.85642 | 272 ft | 183 kts | 239° |
| 2026-04-30 12:05 | 31.71143 | 118.84359 | 1070 ft | 181 kts | 238° |
| 2026-04-30 12:05 | 31.70469 | 118.83085 | 1819 ft | 190 kts | 237° |
| 2026-04-30 12:05 | 31.69746 | 118.81762 | 2303 ft | 196 kts | 237° |
| 2026-04-30 12:05 | 31.69000 | 118.80401 | 2784 ft | 199 kts | 237° |
| 2026-04-30 12:06 | 31.68227 | 118.78987 | 3089 ft | 217 kts | 238° |
| 2026-04-30 12:06 | 31.67617 | 118.77301 | 3363 ft | 241 kts | 259° |
| 2026-04-30 12:06 | 31.67520 | 118.75271 | 3832 ft | 256 kts | 270° |
| 2026-04-30 12:06 | 31.67510 | 118.73156 | 4570 ft | 262 kts | 271° |
| 2026-04-30 12:07 | 31.67492 | 118.70992 | 5344 ft | 267 kts | 272° |
| 2026-04-30 12:07 | 31.67469 | 118.68809 | 6172 ft | 268 kts | 272° |
| 2026-04-30 12:07 | 31.67441 | 118.66622 | 7015 ft | 268 kts | 273° |
| 2026-04-30 12:07 | 31.67413 | 118.64432 | 7802 ft | 269 kts | 273° |
| 2026-04-30 12:08 | 31.67387 | 118.62223 | 8568 ft | 272 kts | 273° |
| 2026-04-30 12:08 | 31.67358 | 118.59995 | 9337 ft | 274 kts | 273° |
| 2026-04-30 12:08 | 31.67327 | 118.57743 | 10083 ft | 277 kts | 274° |
| 2026-04-30 12:08 | 31.67294 | 118.55424 | 10443 ft | 294 kts | 274° |
| 2026-04-30 12:09 | 31.67260 | 118.52925 | 10596 ft | 317 kts | 273° |
| 2026-04-30 12:09 | 31.67221 | 118.50246 | 10719 ft | 339 kts | 273° |
| 2026-04-30 12:09 | 31.67175 | 118.47408 | 10984 ft | 354 kts | 272° |
| 2026-04-30 12:09 | 31.67122 | 118.44495 | 11543 ft | 359 kts | 273° |
| 2026-04-30 12:10 | 31.67069 | 118.41555 | 12176 ft | 362 kts | 273° |
| 2026-04-30 12:10 | 31.67020 | 118.38593 | 12813 ft | 364 kts | 273° |
| 2026-04-30 12:10 | 31.66974 | 118.35608 | 13422 ft | 367 kts | 273° |
| 2026-04-30 12:10 | 31.66927 | 118.32635 | 13981 ft | 371 kts | 273° |
| 2026-04-30 12:11 | 31.66878 | 118.29599 | 14520 ft | 373 kts | 273° |
| 2026-04-30 12:11 | 31.66827 | 118.26546 | 15079 ft | 375 kts | 273° |
| 2026-04-30 12:11 | 31.66773 | 118.23483 | 15630 ft | 376 kts | 273° |
| 2026-04-30 12:11 | 31.66716 | 118.20409 | 16161 ft | 377 kts | 273° |
| 2026-04-30 12:12 | 31.66639 | 118.17328 | 16696 ft | 380 kts | 270° |
| 2026-04-30 12:12 | 31.66357 | 118.14226 | 17225 ft | 383 kts | 269° |
| 2026-04-30 12:12 | 31.66063 | 118.11116 | 17757 ft | 384 kts | 269° |
| 2026-04-30 12:12 | 31.65766 | 118.07993 | 18282 ft | 386 kts | 269° |
| 2026-04-30 12:13 | 31.65464 | 118.04855 | 18726 ft | 388 kts | 269° |
| 2026-04-30 12:13 | 31.65162 | 118.01701 | 19125 ft | 390 kts | 269° |
| 2026-04-30 12:13 | 31.64859 | 117.98528 | 19571 ft | 391 kts | 269° |
| 2026-04-30 12:13 | 31.64551 | 117.95355 | 20027 ft | 392 kts | 269° |
| 2026-04-30 12:14 | 31.64242 | 117.92172 | 20464 ft | 393 kts | 269° |
| 2026-04-30 12:14 | 31.63932 | 117.88985 | 20910 ft | 394 kts | 270° |
| 2026-04-30 12:14 | 31.63622 | 117.85790 | 21342 ft | 394 kts | 270° |
| 2026-04-30 12:14 | 31.63311 | 117.82594 | 21776 ft | 394 kts | 270° |
| 2026-04-30 12:15 | 31.63000 | 117.79395 | 22040 ft | 395 kts | 270° |
| 2026-04-30 12:15 | 31.62686 | 117.76197 | 22101 ft | 395 kts | 270° |
| 2026-04-30 12:15 | 31.62368 | 117.72995 | 22100 ft | 394 kts | 270° |
| 2026-04-30 12:15 | 31.62052 | 117.69806 | 22100 ft | 394 kts | 270° |
| 2026-04-30 12:16 | 31.61733 | 117.66618 | 22097 ft | 394 kts | 270° |
| 2026-04-30 12:16 | 31.61448 | 117.63430 | 22097 ft | 391 kts | 274° |
| 2026-04-30 12:16 | 31.61537 | 117.60271 | 22100 ft | 384 kts | 282° |
| 2026-04-30 12:16 | 31.62042 | 117.57216 | 22100 ft | 379 kts | 290° |
| 2026-04-30 12:17 | 31.64323 | 117.51754 | 22096 ft | 372 kts | 307° |
| 2026-04-30 12:17 | 31.65834 | 117.49284 | 22096 ft | 373 kts | 307° |
| 2026-04-30 12:17 | 31.67347 | 117.46816 | 22077 ft | 373 kts | 307° |
| 2026-04-30 12:18 | 31.68611 | 117.44198 | 22090 ft | 378 kts | 294° |
| 2026-04-30 12:18 | 31.69188 | 117.41157 | 22092 ft | 388 kts | 278° |
| 2026-04-30 12:18 | 31.68967 | 117.37956 | 22093 ft | 402 kts | 264° |
| 2026-04-30 12:18 | 31.67945 | 117.34849 | 22092 ft | 418 kts | 248° |
| 2026-04-30 12:19 | 31.66112 | 117.32123 | 22094 ft | 437 kts | 230° |
| 2026-04-30 12:19 | 31.63522 | 117.30125 | 22070 ft | 458 kts | 210° |
| 2026-04-30 12:19 | 31.60383 | 117.29205 | 22096 ft | 475 kts | 191° |
| 2026-04-30 12:19 | 31.57071 | 117.28974 | 22095 ft | 478 kts | 189° |
| 2026-04-30 12:20 | 31.53749 | 117.28796 | 22098 ft | 478 kts | 188° |
| 2026-04-30 12:20 | 31.50425 | 117.28651 | 22098 ft | 478 kts | 188° |
| 2026-04-30 12:20 | 31.47098 | 117.28523 | 22098 ft | 478 kts | 188° |
| 2026-04-30 12:20 | 31.43771 | 117.28394 | 22103 ft | 478 kts | 188° |
| 2026-04-30 12:21 | 31.40444 | 117.28257 | 22101 ft | 478 kts | 188° |
| 2026-04-30 12:21 | 31.37126 | 117.28109 | 22099 ft | 477 kts | 188° |
| 2026-04-30 12:21 | 31.33814 | 117.27955 | 22106 ft | 476 kts | 188° |
| 2026-04-30 12:21 | 31.30506 | 117.27796 | 22104 ft | 475 kts | 188° |
| 2026-04-30 12:22 | 31.27199 | 117.27634 | 22104 ft | 475 kts | 188° |
| 2026-04-30 12:22 | 31.23897 | 117.27474 | 22107 ft | 475 kts | 188° |
| 2026-04-30 12:22 | 31.20600 | 117.27301 | 22107 ft | 475 kts | 189° |
| 2026-04-30 12:22 | 31.17301 | 117.27118 | 22107 ft | 474 kts | 189° |
| 2026-04-30 12:23 | 31.14004 | 117.26926 | 22079 ft | 474 kts | 189° |
| 2026-04-30 12:23 | 31.10707 | 117.26734 | 22114 ft | 474 kts | 189° |
| 2026-04-30 12:23 | 31.07415 | 117.26545 | 22110 ft | 474 kts | 189° |
| 2026-04-30 12:23 | 31.04120 | 117.26359 | 22111 ft | 474 kts | 189° |
| 2026-04-30 12:24 | 31.00873 | 117.26179 | 22114 ft | 474 kts | 189° |
| 2026-04-30 12:24 | 30.97579 | 117.25996 | 22114 ft | 474 kts | 189° |
| 2026-04-30 12:24 | 30.94282 | 117.25810 | 22114 ft | 474 kts | 189° |
| 2026-04-30 12:24 | 30.90989 | 117.25627 | 22115 ft | 474 kts | 189° |
| 2026-04-30 12:25 | 30.87693 | 117.25445 | 22111 ft | 474 kts | 189° |
| 2026-04-30 12:25 | 30.84397 | 117.25262 | 22117 ft | 474 kts | 189° |
| 2026-04-30 12:25 | 30.81107 | 117.25079 | 22117 ft | 474 kts | 189° |
| 2026-04-30 12:25 | 30.77810 | 117.24897 | 22116 ft | 474 kts | 189° |
| 2026-04-30 12:26 | 30.74518 | 117.24722 | 22119 ft | 474 kts | 189° |
| 2026-04-30 12:26 | 30.71220 | 117.24553 | 22116 ft | 474 kts | 189° |
| 2026-04-30 12:26 | 30.67923 | 117.24386 | 22117 ft | 474 kts | 189° |
| 2026-04-30 12:26 | 30.64628 | 117.24219 | 22098 ft | 474 kts | 189° |
| 2026-04-30 12:27 | 30.61327 | 117.24050 | 22117 ft | 475 kts | 189° |
| 2026-04-30 12:27 | 30.58028 | 117.23880 | 22113 ft | 475 kts | 189° |
| 2026-04-30 12:27 | 30.54730 | 117.23711 | 22118 ft | 475 kts | 189° |
| 2026-04-30 12:27 | 30.51428 | 117.23544 | 22126 ft | 475 kts | 189° |
| 2026-04-30 12:28 | 30.48126 | 117.23380 | 22116 ft | 475 kts | 189° |
| 2026-04-30 12:28 | 30.44820 | 117.23215 | 22208 ft | 477 kts | 189° |
| 2026-04-30 12:28 | 30.41502 | 117.23053 | 22529 ft | 479 kts | 189° |
| 2026-04-30 12:28 | 30.38165 | 117.22891 | 22590 ft | 480 kts | 189° |
| 2026-04-30 12:29 | 30.34797 | 117.22723 | 22626 ft | 490 kts | 189° |
| 2026-04-30 12:29 | 30.31359 | 117.22547 | 22621 ft | 498 kts | 189° |
| 2026-04-30 12:29 | 30.27885 | 117.22369 | 22622 ft | 500 kts | 189° |
| 2026-04-30 12:29 | 30.24406 | 117.22188 | 22625 ft | 501 kts | 189° |
| 2026-04-30 12:30 | 30.20922 | 117.22009 | 22627 ft | 501 kts | 189° |
| 2026-04-30 12:30 | 30.17438 | 117.21835 | 22627 ft | 501 kts | 189° |
| 2026-04-30 12:30 | 30.14001 | 117.21668 | 22611 ft | 501 kts | 189° |
| 2026-04-30 12:30 | 30.10525 | 117.21503 | 22628 ft | 499 kts | 189° |
| 2026-04-30 12:31 | 30.07056 | 117.21337 | 22629 ft | 499 kts | 189° |
| 2026-04-30 12:31 | 30.03591 | 117.21165 | 22628 ft | 498 kts | 189° |
| 2026-04-30 12:31 | 30.00122 | 117.20988 | 22629 ft | 498 kts | 189° |
| 2026-04-30 12:31 | 29.96660 | 117.20809 | 22628 ft | 498 kts | 189° |
| 2026-04-30 12:32 | 29.93199 | 117.20623 | 22620 ft | 497 kts | 189° |
| 2026-04-30 12:32 | 29.89743 | 117.20437 | 22585 ft | 497 kts | 189° |
| 2026-04-30 12:32 | 29.86291 | 117.20252 | 22613 ft | 496 kts | 189° |
| 2026-04-30 12:32 | 29.82846 | 117.20057 | 22634 ft | 494 kts | 191° |
| 2026-04-30 12:33 | 29.79481 | 117.19484 | 22639 ft | 484 kts | 200° |
| 2026-04-30 12:33 | 29.76302 | 117.18351 | 22643 ft | 473 kts | 210° |
| 2026-04-30 12:33 | 29.73374 | 117.16720 | 22643 ft | 463 kts | 218° |
| 2026-04-30 12:33 | 29.70732 | 117.14662 | 22638 ft | 455 kts | 226° |
| 2026-04-30 12:34 | 29.69131 | 117.13124 | 22631 ft | 452 kts | 228° |
| 2026-04-30 12:34 | 29.66732 | 117.10782 | 22596 ft | 452 kts | 227° |
| 2026-04-30 12:34 | 29.63516 | 117.07661 | 22603 ft | 453 kts | 227° |
| 2026-04-30 12:34 | 29.61921 | 117.06115 | 22606 ft | 453 kts | 227° |
| 2026-04-30 12:35 | 29.59516 | 117.03783 | 22609 ft | 452 kts | 227° |
| 2026-04-30 12:35 | 29.57113 | 117.01451 | 22615 ft | 452 kts | 227° |
| 2026-04-30 12:35 | 29.54709 | 116.99118 | 22616 ft | 452 kts | 227° |
| 2026-04-30 12:35 | 29.52304 | 116.96790 | 22617 ft | 452 kts | 227° |
| 2026-04-30 12:36 | 29.49896 | 116.94464 | 22616 ft | 452 kts | 227° |
| 2026-04-30 12:36 | 29.47493 | 116.92139 | 22618 ft | 452 kts | 227° |
| 2026-04-30 12:36 | 29.44309 | 116.89051 | 22596 ft | 452 kts | 227° |
| 2026-04-30 12:36 | 29.42687 | 116.87477 | 22601 ft | 452 kts | 227° |
| 2026-04-30 12:37 | 29.40282 | 116.85143 | 22598 ft | 453 kts | 227° |
| 2026-04-30 12:37 | 29.37092 | 116.82053 | 22604 ft | 454 kts | 227° |
| 2026-04-30 12:37 | 29.35459 | 116.80473 | 22608 ft | 454 kts | 227° |
| 2026-04-30 12:37 | 29.33039 | 116.78140 | 22623 ft | 455 kts | 227° |
| 2026-04-30 12:38 | 29.30618 | 116.75812 | 22610 ft | 455 kts | 227° |
| 2026-04-30 12:38 | 29.28192 | 116.73481 | 22619 ft | 455 kts | 227° |
| 2026-04-30 12:38 | 29.25768 | 116.71150 | 22620 ft | 455 kts | 227° |
| 2026-04-30 12:38 | 29.23344 | 116.68821 | 22600 ft | 455 kts | 227° |
| 2026-04-30 12:39 | 29.20921 | 116.66493 | 22607 ft | 455 kts | 226° |
| 2026-04-30 12:39 | 29.18534 | 116.64198 | 22613 ft | 454 kts | 226° |
| 2026-04-30 12:39 | 29.16112 | 116.61868 | 22618 ft | 454 kts | 227° |
| 2026-04-30 12:39 | 29.13693 | 116.59544 | 22616 ft | 454 kts | 226° |
| 2026-04-30 12:40 | 29.11271 | 116.57220 | 22616 ft | 454 kts | 226° |
| 2026-04-30 12:40 | 29.08850 | 116.54902 | 22617 ft | 454 kts | 226° |
| 2026-04-30 12:40 | 29.06422 | 116.52580 | 22619 ft | 455 kts | 226° |
| 2026-04-30 12:40 | 29.03995 | 116.50262 | 22617 ft | 455 kts | 226° |
| 2026-04-30 12:41 | 29.01566 | 116.47942 | 22594 ft | 455 kts | 226° |
| 2026-04-30 12:41 | 28.99142 | 116.45626 | 22605 ft | 455 kts | 226° |
| 2026-04-30 12:41 | 28.96720 | 116.43305 | 22611 ft | 454 kts | 226° |
| 2026-04-30 12:41 | 28.94300 | 116.40985 | 22618 ft | 454 kts | 226° |
| 2026-04-30 12:42 | 28.91878 | 116.38667 | 22621 ft | 454 kts | 226° |
| 2026-04-30 12:42 | 28.89457 | 116.36356 | 22623 ft | 454 kts | 226° |
| 2026-04-30 12:42 | 28.87033 | 116.34050 | 22624 ft | 454 kts | 226° |
| 2026-04-30 12:42 | 28.84607 | 116.31745 | 22624 ft | 454 kts | 226° |
| 2026-04-30 12:43 | 28.82179 | 116.29438 | 22622 ft | 454 kts | 226° |
| 2026-04-30 12:43 | 28.79754 | 116.27131 | 22607 ft | 454 kts | 226° |
| 2026-04-30 12:43 | 28.77322 | 116.24820 | 22615 ft | 453 kts | 226° |
| 2026-04-30 12:43 | 28.74930 | 116.22548 | 22623 ft | 453 kts | 226° |
| 2026-04-30 12:44 | 28.72506 | 116.20247 | 22630 ft | 453 kts | 225° |
| 2026-04-30 12:44 | 28.70084 | 116.17949 | 22634 ft | 453 kts | 226° |
| 2026-04-30 12:44 | 28.67661 | 116.15649 | 22636 ft | 453 kts | 226° |
| 2026-04-30 12:44 | 28.65244 | 116.13354 | 22637 ft | 453 kts | 226° |
| 2026-04-30 12:45 | 28.62826 | 116.11060 | 22637 ft | 453 kts | 226° |
| 2026-04-30 12:45 | 28.60407 | 116.08768 | 22636 ft | 452 kts | 225° |
| 2026-04-30 12:45 | 28.57987 | 116.06477 | 22636 ft | 452 kts | 225° |
| 2026-04-30 12:45 | 28.55565 | 116.04191 | 22634 ft | 453 kts | 225° |
| 2026-04-30 12:46 | 28.53139 | 116.01904 | 22636 ft | 453 kts | 225° |
| 2026-04-30 12:46 | 28.50710 | 115.99616 | 22633 ft | 453 kts | 225° |
| 2026-04-30 12:46 | 28.48287 | 115.97330 | 22633 ft | 453 kts | 225° |
| 2026-04-30 12:46 | 28.45867 | 115.95044 | 22632 ft | 452 kts | 225° |
| 2026-04-30 12:47 | 28.43305 | 115.92938 | 22634 ft | 459 kts | 217° |
| 2026-04-30 12:47 | 28.40427 | 115.91304 | 22626 ft | 467 kts | 207° |
| 2026-04-30 12:47 | 28.37360 | 115.90049 | 22624 ft | 469 kts | 205° |
| 2026-04-30 12:47 | 28.34289 | 115.88810 | 22601 ft | 469 kts | 205° |
| 2026-04-30 12:48 | 28.31212 | 115.87562 | 22607 ft | 469 kts | 205° |
| 2026-04-30 12:48 | 28.28184 | 115.86330 | 22611 ft | 469 kts | 205° |
| 2026-04-30 12:48 | 28.25114 | 115.85079 | 22616 ft | 469 kts | 205° |
| 2026-04-30 12:48 | 28.22042 | 115.83830 | 22620 ft | 469 kts | 205° |
| 2026-04-30 12:49 | 28.18970 | 115.82585 | 22621 ft | 469 kts | 205° |
| 2026-04-30 12:49 | 28.15894 | 115.81342 | 22626 ft | 469 kts | 205° |
| 2026-04-30 12:49 | 28.12820 | 115.80103 | 22627 ft | 469 kts | 205° |
| 2026-04-30 12:49 | 28.09747 | 115.78863 | 22610 ft | 469 kts | 205° |
| 2026-04-30 12:50 | 28.06671 | 115.77619 | 22621 ft | 469 kts | 205° |
| 2026-04-30 12:50 | 28.03605 | 115.76380 | 22623 ft | 468 kts | 205° |
| 2026-04-30 12:50 | 28.00534 | 115.75139 | 22632 ft | 468 kts | 205° |
| 2026-04-30 12:50 | 27.97468 | 115.73904 | 22631 ft | 468 kts | 205° |
| 2026-04-30 12:51 | 27.94399 | 115.72671 | 22636 ft | 468 kts | 205° |
| 2026-04-30 12:51 | 27.91336 | 115.71441 | 22636 ft | 468 kts | 205° |
| 2026-04-30 12:51 | 27.88268 | 115.70210 | 22639 ft | 468 kts | 205° |
| 2026-04-30 12:51 | 27.85203 | 115.68978 | 22615 ft | 467 kts | 204° |
| 2026-04-30 12:52 | 27.82138 | 115.67751 | 22635 ft | 467 kts | 204° |
| 2026-04-30 12:52 | 27.79080 | 115.66529 | 22646 ft | 466 kts | 204° |
| 2026-04-30 12:52 | 27.76024 | 115.65308 | 22652 ft | 466 kts | 204° |
| 2026-04-30 12:52 | 27.72973 | 115.64084 | 22648 ft | 465 kts | 205° |
| 2026-04-30 12:53 | 27.69928 | 115.62855 | 22649 ft | 465 kts | 205° |
| 2026-04-30 12:53 | 27.66888 | 115.61622 | 22648 ft | 464 kts | 205° |
| 2026-04-30 12:53 | 27.63847 | 115.60389 | 22646 ft | 464 kts | 205° |
| 2026-04-30 12:53 | 27.60809 | 115.59159 | 22622 ft | 464 kts | 204° |
| 2026-04-30 12:54 | 27.57807 | 115.57945 | 22628 ft | 464 kts | 204° |
| 2026-04-30 12:54 | 27.54770 | 115.56719 | 22633 ft | 464 kts | 204° |
| 2026-04-30 12:54 | 27.51732 | 115.55496 | 22636 ft | 463 kts | 204° |
| 2026-04-30 12:54 | 27.48697 | 115.54276 | 22636 ft | 463 kts | 204° |
| 2026-04-30 12:55 | 27.45665 | 115.53056 | 22634 ft | 463 kts | 204° |
| 2026-04-30 12:55 | 27.42631 | 115.51836 | 22635 ft | 463 kts | 204° |
| 2026-04-30 12:55 | 27.39598 | 115.50620 | 22632 ft | 463 kts | 204° |
| 2026-04-30 12:55 | 27.36584 | 115.49412 | 22624 ft | 453 kts | 204° |
| 2026-04-30 12:56 | 27.33684 | 115.48256 | 22628 ft | 432 kts | 204° |
| 2026-04-30 12:56 | 27.30912 | 115.47154 | 22632 ft | 413 kts | 204° |
| 2026-04-30 12:56 | 27.28263 | 115.46101 | 22631 ft | 395 kts | 205° |
| 2026-04-30 12:56 | 27.25728 | 115.45088 | 22632 ft | 378 kts | 205° |
| 2026-04-30 12:57 | 27.23301 | 115.44115 | 22630 ft | 363 kts | 205° |
| 2026-04-30 12:57 | 27.20974 | 115.43182 | 22632 ft | 347 kts | 205° |
| 2026-04-30 12:57 | 27.18746 | 115.42290 | 22632 ft | 332 kts | 206° |
| 2026-04-30 12:57 | 27.16606 | 115.41433 | 22630 ft | 323 kts | 206° |
| 2026-04-30 12:58 | 27.14498 | 115.40586 | 22633 ft | 320 kts | 206° |
| 2026-04-30 12:58 | 27.12403 | 115.39741 | 22632 ft | 320 kts | 206° |
| 2026-04-30 12:58 | 27.10311 | 115.38895 | 22612 ft | 319 kts | 206° |
| 2026-04-30 12:58 | 27.08222 | 115.38051 | 22629 ft | 319 kts | 206° |
| 2026-04-30 12:59 | 27.06132 | 115.37211 | 22628 ft | 319 kts | 206° |
| 2026-04-30 12:59 | 27.04041 | 115.36375 | 22633 ft | 319 kts | 206° |
| 2026-04-30 12:59 | 27.01951 | 115.35540 | 22633 ft | 319 kts | 206° |
| 2026-04-30 12:59 | 26.99859 | 115.34707 | 22633 ft | 319 kts | 206° |
| 2026-04-30 13:00 | 26.97767 | 115.33874 | 22634 ft | 319 kts | 206° |
| 2026-04-30 13:00 | 26.95674 | 115.33039 | 22632 ft | 319 kts | 206° |
| 2026-04-30 13:00 | 26.93583 | 115.32202 | 22637 ft | 319 kts | 206° |
| 2026-04-30 13:00 | 26.91491 | 115.31367 | 22635 ft | 319 kts | 206° |
| 2026-04-30 13:01 | 26.89399 | 115.30533 | 22631 ft | 319 kts | 206° |
| 2026-04-30 13:01 | 26.87309 | 115.29700 | 22632 ft | 319 kts | 206° |
| 2026-04-30 13:01 | 26.85214 | 115.28870 | 22619 ft | 319 kts | 206° |
| 2026-04-30 13:01 | 26.83093 | 115.28028 | 22628 ft | 333 kts | 206° |
| 2026-04-30 13:02 | 26.80843 | 115.27121 | 22638 ft | 355 kts | 205° |
| 2026-04-30 13:02 | 26.78448 | 115.26157 | 22632 ft | 376 kts | 205° |
| 2026-04-30 13:02 | 26.75921 | 115.25143 | 22636 ft | 395 kts | 205° |
| 2026-04-30 13:02 | 26.73280 | 115.24088 | 22634 ft | 410 kts | 205° |
| 2026-04-30 13:03 | 26.70581 | 115.23012 | 22638 ft | 424 kts | 204° |
| 2026-04-30 13:03 | 26.67765 | 115.21892 | 22637 ft | 435 kts | 204° |
| 2026-04-30 13:03 | 26.64881 | 115.20745 | 22639 ft | 445 kts | 204° |
| 2026-04-30 13:03 | 26.61930 | 115.19571 | 22639 ft | 455 kts | 204° |
| 2026-04-30 13:04 | 26.58923 | 115.18375 | 22627 ft | 463 kts | 204° |
| 2026-04-30 13:04 | 26.55869 | 115.17159 | 22633 ft | 469 kts | 204° |
| 2026-04-30 13:04 | 26.52780 | 115.15932 | 22638 ft | 471 kts | 204° |
| 2026-04-30 13:04 | 26.49691 | 115.14706 | 22632 ft | 472 kts | 204° |
| 2026-04-30 13:05 | 26.46597 | 115.13479 | 22637 ft | 472 kts | 204° |
| 2026-04-30 13:05 | 26.43501 | 115.12252 | 22642 ft | 472 kts | 204° |
| 2026-04-30 13:05 | 26.40406 | 115.11024 | 22636 ft | 472 kts | 204° |
| 2026-04-30 13:06 | 26.34217 | 115.08567 | 22644 ft | 472 kts | 203° |
| 2026-04-30 13:06 | 26.31125 | 115.07346 | 22644 ft | 472 kts | 203° |
| 2026-04-30 13:06 | 26.28028 | 115.06122 | 22636 ft | 472 kts | 203° |
| 2026-04-30 13:06 | 26.24938 | 115.04896 | 22633 ft | 471 kts | 203° |
| 2026-04-30 13:07 | 26.21849 | 115.03669 | 22634 ft | 471 kts | 203° |
| 2026-04-30 13:07 | 26.18762 | 115.02446 | 22639 ft | 471 kts | 203° |
| 2026-04-30 13:07 | 26.15669 | 115.01225 | 22635 ft | 471 kts | 203° |
| 2026-04-30 13:07 | 26.12578 | 115.00007 | 22638 ft | 471 kts | 203° |
| 2026-04-30 13:08 | 26.09487 | 114.98788 | 22485 ft | 469 kts | 203° |
| 2026-04-30 13:08 | 26.06352 | 114.97437 | 20155 ft | 499 kts | 205° |
| 2026-04-30 13:08 | 26.03272 | 114.96100 | 21357 ft | 464 kts | 204° |
| 2026-04-30 13:08 | 26.00218 | 114.94885 | 21436 ft | 466 kts | 202° |
| 2026-04-30 13:09 | 25.97144 | 114.93742 | 21441 ft | 465 kts | 201° |
| 2026-04-30 13:09 | 25.94070 | 114.92623 | 21439 ft | 465 kts | 201° |
| 2026-04-30 13:09 | 25.90999 | 114.91490 | 21440 ft | 465 kts | 202° |
| 2026-04-30 13:09 | 25.87938 | 114.90330 | 21440 ft | 465 kts | 202° |
| 2026-04-30 13:10 | 25.84886 | 114.89143 | 21437 ft | 464 kts | 202° |
| 2026-04-30 13:10 | 25.81843 | 114.87940 | 21428 ft | 464 kts | 202° |
| 2026-04-30 13:10 | 25.78721 | 114.86976 | 21434 ft | 467 kts | 196° |
| 2026-04-30 13:10 | 25.75557 | 114.86165 | 21434 ft | 467 kts | 195° |
| 2026-04-30 13:11 | 25.72383 | 114.85372 | 21435 ft | 467 kts | 195° |
| 2026-04-30 13:11 | 25.69212 | 114.84593 | 21437 ft | 467 kts | 195° |
| 2026-04-30 13:11 | 25.66037 | 114.83817 | 21437 ft | 467 kts | 195° |
| 2026-04-30 13:11 | 25.62861 | 114.83039 | 21437 ft | 467 kts | 195° |
| 2026-04-30 13:12 | 25.59731 | 114.82268 | 21434 ft | 467 kts | 195° |
| 2026-04-30 13:12 | 25.56561 | 114.81481 | 21434 ft | 467 kts | 195° |
| 2026-04-30 13:12 | 25.53390 | 114.80692 | 21431 ft | 467 kts | 195° |
| 2026-04-30 13:13 | 25.47050 | 114.79118 | 21431 ft | 466 kts | 195° |
| 2026-04-30 13:13 | 25.43884 | 114.78331 | 21431 ft | 466 kts | 195° |
| 2026-04-30 13:13 | 25.37547 | 114.76761 | 21432 ft | 466 kts | 195° |
| 2026-04-30 13:14 | 25.34381 | 114.75979 | 21435 ft | 466 kts | 195° |
| 2026-04-30 13:14 | 25.31214 | 114.75197 | 21435 ft | 466 kts | 195° |
| 2026-04-30 13:14 | 25.24882 | 114.73636 | 21431 ft | 466 kts | 195° |
| 2026-04-30 13:15 | 25.21717 | 114.72857 | 21431 ft | 466 kts | 195° |
| 2026-04-30 13:15 | 25.15388 | 114.71304 | 21428 ft | 466 kts | 195° |
| 2026-04-30 13:15 | 25.12221 | 114.70524 | 21429 ft | 466 kts | 195° |
| 2026-04-30 13:16 | 25.09057 | 114.69746 | 21430 ft | 466 kts | 195° |
| 2026-04-30 13:16 | 25.05889 | 114.68965 | 21429 ft | 466 kts | 195° |
| 2026-04-30 13:16 | 25.02725 | 114.68182 | 21429 ft | 466 kts | 195° |
| 2026-04-30 13:17 | 24.96394 | 114.66625 | 21427 ft | 466 kts | 194° |
| 2026-04-30 13:17 | 24.93228 | 114.65851 | 21427 ft | 466 kts | 194° |
| 2026-04-30 13:17 | 24.87964 | 114.64562 | 21426 ft | 466 kts | 194° |
| 2026-04-30 13:18 | 24.83731 | 114.63524 | 21429 ft | 466 kts | 194° |
| 2026-04-30 13:18 | 24.77399 | 114.61977 | 21430 ft | 466 kts | 194° |
| 2026-04-30 13:18 | 24.74235 | 114.61201 | 21429 ft | 466 kts | 195° |
| 2026-04-30 13:19 | 24.71101 | 114.60308 | 21424 ft | 464 kts | 201° |
| 2026-04-30 13:19 | 24.68138 | 114.58937 | 21423 ft | 462 kts | 209° |
| 2026-04-30 13:19 | 24.65348 | 114.57192 | 21428 ft | 461 kts | 212° |
| 2026-04-30 13:19 | 24.62572 | 114.55428 | 21425 ft | 461 kts | 212° |
| 2026-04-30 13:20 | 24.59829 | 114.53692 | 21429 ft | 461 kts | 212° |
| 2026-04-30 13:20 | 24.57047 | 114.51933 | 21424 ft | 461 kts | 212° |
| 2026-04-30 13:20 | 24.54265 | 114.50178 | 21428 ft | 461 kts | 212° |
| 2026-04-30 13:20 | 24.51485 | 114.48429 | 21423 ft | 461 kts | 211° |
| 2026-04-30 13:21 | 24.48701 | 114.46681 | 21427 ft | 461 kts | 211° |
| 2026-04-30 13:21 | 24.45927 | 114.44940 | 21421 ft | 461 kts | 212° |
| 2026-04-30 13:21 | 24.43130 | 114.43181 | 21309 ft | 464 kts | 212° |
| 2026-04-30 13:22 | 24.37550 | 114.39668 | 20681 ft | 464 kts | 212° |
| 2026-04-30 13:22 | 24.35697 | 114.38501 | 20539 ft | 464 kts | 212° |
| 2026-04-30 13:22 | 24.29163 | 114.34408 | 20041 ft | 461 kts | 211° |
| 2026-04-30 13:23 | 24.27317 | 114.33255 | 19902 ft | 461 kts | 211° |
| 2026-04-30 13:23 | 24.21766 | 114.29787 | 19488 ft | 458 kts | 211° |
| 2026-04-30 13:24 | 24.16243 | 114.26334 | 19076 ft | 455 kts | 211° |
| 2026-04-30 13:24 | 24.10759 | 114.22896 | 18672 ft | 453 kts | 213° |
| 2026-04-30 13:25 | 24.06031 | 114.18461 | 18249 ft | 447 kts | 230° |
| 2026-04-30 13:25 | 24.01998 | 114.13320 | 17702 ft | 442 kts | 230° |
| 2026-04-30 13:26 | 23.96193 | 114.05974 | 16867 ft | 405 kts | 230° |
| 2026-04-30 13:26 | 23.92638 | 114.01426 | 16367 ft | 382 kts | 231° |
| 2026-04-30 13:27 | 23.89295 | 113.97108 | 15882 ft | 363 kts | 231° |
| 2026-04-30 13:28 | 23.84585 | 113.91006 | 15173 ft | 338 kts | 234° |
| 2026-04-30 13:28 | 23.82439 | 113.86607 | 14705 ft | 322 kts | 252° |
| 2026-04-30 13:28 | 23.81836 | 113.84280 | 14467 ft | 316 kts | 256° |
| 2026-04-30 13:29 | 23.80720 | 113.79722 | 14018 ft | 305 kts | 255° |
| 2026-04-30 13:29 | 23.79623 | 113.75315 | 13528 ft | 296 kts | 255° |
| 2026-04-30 13:30 | 23.78035 | 113.68944 | 12773 ft | 284 kts | 255° |
| 2026-04-30 13:31 | 23.77013 | 113.64839 | 12284 ft | 277 kts | 255° |
| 2026-04-30 13:31 | 23.75527 | 113.58861 | 11556 ft | 267 kts | 255° |
| 2026-04-30 13:32 | 23.74564 | 113.54992 | 11060 ft | 261 kts | 255° |
| 2026-04-30 13:32 | 23.73626 | 113.51241 | 10599 ft | 255 kts | 255° |
| 2026-04-30 13:33 | 23.72699 | 113.47531 | 10164 ft | 252 kts | 255° |
| 2026-04-30 13:33 | 23.71774 | 113.43832 | 10076 ft | 259 kts | 255° |
| 2026-04-30 13:34 | 23.71265 | 113.41800 | 10078 ft | 296 kts | 255° |
| 2026-04-30 13:34 | 23.69441 | 113.34524 | 10070 ft | 345 kts | 255° |
| 2026-04-30 13:35 | 23.68806 | 113.31993 | 10071 ft | 346 kts | 255° |
| 2026-04-30 13:35 | 23.67335 | 113.27010 | 10062 ft | 346 kts | 241° |
| 2026-04-30 13:36 | 23.63817 | 113.23628 | 10061 ft | 332 kts | 202° |
| 2026-04-30 13:36 | 23.61632 | 113.22995 | 9955 ft | 321 kts | 193° |
| 2026-04-30 13:36 | 23.57349 | 113.22035 | 9399 ft | 308 kts | 193° |
| 2026-04-30 13:37 | 23.55268 | 113.21571 | 9121 ft | 303 kts | 193° |
| 2026-04-30 13:37 | 23.51219 | 113.20668 | 8580 ft | 292 kts | 193° |
| 2026-04-30 13:38 | 23.47318 | 113.19791 | 8032 ft | 281 kts | 193° |
| 2026-04-30 13:38 | 23.45447 | 113.19371 | 7776 ft | 276 kts | 193° |
| 2026-04-30 13:38 | 23.41757 | 113.18541 | 7254 ft | 266 kts | 193° |
| 2026-04-30 13:39 | 23.38222 | 113.17757 | 6864 ft | 252 kts | 192° |
| 2026-04-30 13:39 | 23.34836 | 113.17021 | 6394 ft | 245 kts | 192° |
| 2026-04-30 13:40 | 23.33173 | 113.16657 | 6157 ft | 242 kts | 192° |
| 2026-04-30 13:40 | 23.31529 | 113.16296 | 5901 ft | 240 kts | 192° |
| 2026-04-30 13:40 | 23.29905 | 113.15940 | 5650 ft | 237 kts | 191° |
| 2026-04-30 13:40 | 23.28298 | 113.15587 | 5405 ft | 234 kts | 191° |
| 2026-04-30 13:41 | 23.26709 | 113.15239 | 5162 ft | 232 kts | 191° |
| 2026-04-30 13:41 | 23.25132 | 113.14893 | 4918 ft | 230 kts | 191° |
| 2026-04-30 13:41 | 23.23573 | 113.14551 | 4669 ft | 227 kts | 190° |
| 2026-04-30 13:41 | 23.22028 | 113.14212 | 4415 ft | 226 kts | 190° |
| 2026-04-30 13:42 | 23.20497 | 113.13881 | 4171 ft | 223 kts | 190° |
| 2026-04-30 13:42 | 23.18998 | 113.13555 | 4053 ft | 215 kts | 189° |
| 2026-04-30 13:42 | 23.16253 | 113.13337 | 4056 ft | 181 kts | 164° |
| 2026-04-30 13:43 | 23.15147 | 113.13833 | 4048 ft | 164 kts | 146° |
| 2026-04-30 13:43 | 23.14300 | 113.14601 | 4051 ft | 156 kts | 130° |
| 2026-04-30 13:43 | 23.13700 | 113.15575 | 4059 ft | 155 kts | 114° |
| 2026-04-30 13:43 | 23.13377 | 113.16692 | 4060 ft | 156 kts | 98° |
| 2026-04-30 13:44 | 23.13362 | 113.17865 | 4064 ft | 156 kts | 82° |
| 2026-04-30 13:44 | 23.13654 | 113.19000 | 4061 ft | 157 kts | 66° |
| 2026-04-30 13:44 | 23.14235 | 113.20005 | 4064 ft | 158 kts | 50° |
| 2026-04-30 13:44 | 23.15064 | 113.20796 | 4061 ft | 160 kts | 33° |
| 2026-04-30 13:45 | 23.17153 | 113.21645 | 4000 ft | 161 kts | 35° |
| 2026-04-30 13:45 | 23.17907 | 113.22523 | 3770 ft | 159 kts | 51° |
| 2026-04-30 13:45 | 23.18681 | 113.23364 | 3680 ft | 158 kts | 46° |
| 2026-04-30 13:46 | 23.19466 | 113.24184 | 3533 ft | 153 kts | 46° |
| 2026-04-30 13:46 | 23.20217 | 113.24969 | 3378 ft | 148 kts | 46° |
| 2026-04-30 13:46 | 23.20958 | 113.25736 | 3212 ft | 147 kts | 43° |
| 2026-04-30 13:46 | 23.21793 | 113.26341 | 3039 ft | 147 kts | 30° |
| 2026-04-30 13:47 | 23.22726 | 113.26776 | 2857 ft | 146 kts | 23° |
| 2026-04-30 13:47 | 23.23684 | 113.27119 | 2678 ft | 144 kts | 20° |
| 2026-04-30 13:47 | 23.24645 | 113.27416 | 2485 ft | 143 kts | 18° |
| 2026-04-30 13:47 | 23.25603 | 113.27683 | 2294 ft | 141 kts | 17° |
| 2026-04-30 13:48 | 23.26550 | 113.27947 | 2110 ft | 140 kts | 17° |
| 2026-04-30 13:48 | 23.27485 | 113.28207 | 1934 ft | 138 kts | 17° |
| 2026-04-30 13:48 | 23.28416 | 113.28463 | 1750 ft | 138 kts | 17° |
| 2026-04-30 13:48 | 23.29345 | 113.28715 | 1564 ft | 137 kts | 16° |
| 2026-04-30 13:49 | 23.30271 | 113.28966 | 1379 ft | 137 kts | 15° |
| 2026-04-30 13:49 | 23.31195 | 113.29216 | 1200 ft | 137 kts | 15° |
| 2026-04-30 13:49 | 23.32120 | 113.29471 | 1021 ft | 138 kts | 16° |
| 2026-04-30 13:49 | 23.33045 | 113.29756 | 829 ft | 139 kts | 17° |
| 2026-04-30 13:50 | 23.33994 | 113.30000 | 669 ft | 141 kts | 13° |
| 2026-04-30 13:50 | 23.35862 | 113.30488 | 306 ft | 141 kts | 13° |
| 2026-04-30 13:50 | 23.36814 | 113.30748 | 127 ft | 140 kts | 13° |
| 2026-04-30 13:51 | 23.37693 | 113.30972 | 55 ft | 113 kts | 11° |
| 2026-04-30 13:51 | 23.38264 | 113.31123 | 53 ft | 41 kts | 14° |
| 2026-04-30 13:51 | 23.38513 | 113.31189 | 54 ft | 37 kts | 13° |
| 2026-04-30 13:51 | 23.38669 | 113.31193 | 54 ft | 18 kts | 339° |